createdAt,value
2018-11-11T00:00:20.887Z,25.05
2018-11-11T00:02:50.398Z,24.63
2018-11-11T00:05:19.258Z,21.33
2018-11-11T00:07:48.211Z,18.70
2018-11-11T00:10:17.788Z,22.98
2018-11-11T00:12:46.198Z,20.70
2018-11-11T00:15:16.217Z,21.20
2018-11-11T00:17:45.319Z,21.15
2018-11-11T00:20:14.678Z,18.65
2018-11-11T00:22:43.286Z,22.82
2018-11-11T00:25:15.291Z,24.55
2018-11-11T00:27:48.819Z,19.67
2018-11-11T00:30:17.792Z,20.75
2018-11-11T00:32:45.620Z,22.73
2018-11-11T00:35:13.229Z,21.57
2018-11-11T00:37:42.096Z,19.87
2018-11-11T00:40:11.576Z,18.50
2018-11-11T00:42:40.387Z,19.82
2018-11-11T00:45:10.607Z,19.37
2018-11-11T00:47:39.204Z,19.05
2018-11-11T00:50:10.524Z,19.85
2018-11-11T00:52:39.276Z,20.23
2018-11-11T00:55:10.125Z,17.25
2018-11-11T00:57:38.478Z,18.67
2018-11-11T01:00:10.690Z,17.23
2018-11-11T01:02:38.111Z,18.00
2018-11-11T01:05:09.379Z,17.27
2018-11-11T01:07:37.535Z,19.20
2018-11-11T01:10:05.914Z,17.57
2018-11-11T01:12:33.638Z,20.27
2018-11-11T01:15:01.917Z,16.42
2018-11-11T01:17:29.683Z,18.05
2018-11-11T01:19:57.338Z,14.00
2018-11-11T01:22:25.118Z,16.27
2018-11-11T01:24:52.455Z,18.65
2018-11-11T01:27:20.049Z,16.35
2018-11-11T01:29:47.641Z,14.55
2018-11-11T01:32:15.238Z,15.72
2018-11-11T01:34:42.607Z,13.88
2018-11-11T01:37:10.153Z,13.10
2018-11-11T01:39:37.728Z,14.85
2018-11-11T01:42:05.567Z,18.77
2018-11-11T01:44:33.167Z,16.02
2018-11-11T01:47:00.525Z,14.73
2018-11-11T01:49:28.122Z,16.90
2018-11-11T01:51:56.008Z,15.58
2018-11-11T01:54:23.407Z,17.17
2018-11-11T01:56:50.733Z,17.45
2018-11-11T01:59:18.069Z,17.07
2018-11-11T02:01:45.424Z,16.97
2018-11-11T02:04:13.002Z,18.12
2018-11-11T02:06:40.597Z,16.25
2018-11-11T02:09:08.772Z,18.00
2018-11-11T02:11:36.350Z,17.52
2018-11-11T02:14:03.847Z,16.30
2018-11-11T02:16:31.391Z,16.52
2018-11-11T02:18:59.473Z,17.55
2018-11-11T02:21:26.919Z,17.60
2018-11-11T02:23:54.311Z,16.00
2018-11-11T02:26:21.675Z,16.97
2018-11-11T02:28:49.229Z,15.63
2018-11-11T02:31:17.117Z,14.95
2018-11-11T02:33:44.457Z,15.50
2018-11-11T02:36:11.858Z,13.80
2018-11-11T02:38:39.892Z,15.13
2018-11-11T02:41:11.285Z,12.18
2018-11-11T02:43:54.095Z,13.80
2018-11-11T02:46:22.210Z,13.18
2018-11-11T02:48:49.768Z,13.08
2018-11-11T02:51:17.398Z,13.30
2018-11-11T02:53:45.063Z,10.72
2018-11-11T02:56:12.445Z,13.22
2018-11-11T02:58:39.766Z,11.80
2018-11-11T03:01:07.328Z,13.25
2018-11-11T03:03:34.990Z,14.98
2018-11-11T03:06:02.477Z,14.60
2018-11-11T03:08:30.013Z,11.38
2018-11-11T03:10:57.563Z,14.15
2018-11-11T03:13:24.944Z,12.60
2018-11-11T03:15:52.281Z,11.40
2018-11-11T03:18:19.634Z,15.65
2018-11-11T03:20:49.449Z,14.15
2018-11-11T03:23:17.132Z,13.03
2018-11-11T03:25:44.690Z,13.50
2018-11-11T03:28:12.475Z,14.78
2018-11-11T03:30:40.049Z,12.05
2018-11-11T03:33:07.626Z,12.60
2018-11-11T03:35:35.010Z,14.07
2018-11-11T03:38:02.557Z,13.60
2018-11-11T03:40:30.157Z,14.60
2018-11-11T03:42:57.754Z,13.70
2018-11-11T03:45:25.622Z,14.60
2018-11-11T03:47:53.093Z,11.57
2018-11-11T03:50:20.740Z,13.83
2018-11-11T03:52:48.825Z,12.88
2018-11-11T03:55:16.990Z,13.28
2018-11-11T03:57:44.315Z,13.80
2018-11-11T04:00:12.879Z,11.55
2018-11-11T04:02:40.812Z,12.95
2018-11-11T04:05:08.928Z,12.90
2018-11-11T04:07:37.177Z,14.83
2018-11-11T04:10:05.190Z,13.80
2018-11-11T04:12:32.859Z,12.95
2018-11-11T04:15:00.447Z,11.88
2018-11-11T04:17:27.995Z,14.23
2018-11-11T04:19:55.374Z,11.68
2018-11-11T04:22:23.032Z,14.50
2018-11-11T04:24:53.803Z,16.57
2018-11-11T04:27:21.715Z,11.95
2018-11-11T04:29:50.372Z,14.85
2018-11-11T04:32:18.303Z,14.40
2018-11-11T04:34:45.892Z,13.58
2018-11-11T04:37:13.814Z,15.00
2018-11-11T04:39:41.999Z,12.20
2018-11-11T04:42:10.582Z,11.68
2018-11-11T04:44:38.621Z,11.70
2018-11-11T04:47:06.215Z,11.95
2018-11-11T04:49:33.601Z,10.80
2018-11-11T04:52:00.942Z,10.10
2018-11-11T04:54:28.279Z,10.85
2018-11-11T04:56:55.641Z,10.48
2018-11-11T04:59:22.950Z,9.20
2018-11-11T05:01:50.562Z,9.43
2018-11-11T05:04:18.439Z,10.32
2018-11-11T05:06:45.837Z,10.18
2018-11-11T05:09:17.449Z,12.20
2018-11-11T05:11:44.789Z,10.25
2018-11-11T05:14:12.276Z,8.78
2018-11-11T05:16:40.205Z,12.03
2018-11-11T05:19:10.032Z,8.95
2018-11-11T05:21:37.583Z,10.63
2018-11-11T05:24:05.309Z,9.53
2018-11-11T05:26:32.676Z,10.00
2018-11-11T05:29:00.333Z,9.40
2018-11-11T05:31:28.066Z,8.33
2018-11-11T05:33:56.069Z,9.30
2018-11-11T05:36:23.497Z,7.30
2018-11-11T05:38:51.661Z,10.70
2018-11-11T05:41:19.055Z,7.12
2018-11-11T05:43:46.403Z,8.68
2018-11-11T05:46:14.003Z,8.30
2018-11-11T05:48:41.318Z,6.17
2018-11-11T05:51:09.087Z,8.23
2018-11-11T05:53:36.803Z,8.05
2018-11-11T05:56:04.179Z,7.10
2018-11-11T05:58:31.998Z,7.55
2018-11-11T06:00:59.587Z,8.25
2018-11-11T06:03:27.716Z,7.10
2018-11-11T06:05:55.080Z,8.23
2018-11-11T06:08:22.397Z,8.20
2018-11-11T06:10:49.758Z,9.05
2018-11-11T06:13:17.127Z,11.48
2018-11-11T06:15:44.630Z,9.15
2018-11-11T06:18:11.990Z,10.30
2018-11-11T06:20:39.318Z,11.05
2018-11-11T06:23:06.963Z,13.93
2018-11-11T06:25:34.287Z,11.63
2018-11-11T06:28:02.026Z,13.48
2018-11-11T06:30:29.606Z,12.63
2018-11-11T06:32:57.266Z,13.05
2018-11-11T06:35:24.582Z,11.85
2018-11-11T06:37:51.931Z,12.90
2018-11-11T06:40:19.230Z,14.80
2018-11-11T06:42:47.535Z,13.22
2018-11-11T06:45:19.293Z,14.80
2018-11-11T06:47:46.795Z,14.05
2018-11-11T06:50:16.055Z,13.28
2018-11-11T06:52:44.121Z,14.50
2018-11-11T06:55:11.779Z,12.47
2018-11-11T06:57:39.639Z,11.68
2018-11-11T07:00:07.773Z,12.03
2018-11-11T07:02:39.461Z,13.75
2018-11-11T07:05:07.511Z,14.55
2018-11-11T07:07:35.120Z,17.77
2018-11-11T07:10:02.491Z,15.08
2018-11-11T07:12:29.864Z,16.00
2018-11-11T07:14:57.465Z,15.50
2018-11-11T07:17:25.102Z,14.78
2018-11-11T07:19:52.703Z,14.73
2018-11-11T07:22:20.551Z,16.73
2018-11-11T07:24:47.979Z,16.75
2018-11-11T07:27:15.557Z,16.57
2018-11-11T07:29:43.273Z,12.98
2018-11-11T07:32:10.864Z,15.00
2018-11-11T07:34:38.798Z,14.03
2018-11-11T07:37:06.623Z,12.28
2018-11-11T07:39:34.416Z,13.48
2018-11-11T07:42:02.001Z,15.60
2018-11-11T07:44:29.435Z,12.23
2018-11-11T07:46:57.036Z,15.60
2018-11-11T07:49:24.703Z,17.15
2018-11-11T07:51:52.128Z,15.10
2018-11-11T07:54:19.543Z,13.95
2018-11-11T07:56:47.422Z,12.30
2018-11-11T07:59:14.734Z,14.95
2018-11-11T08:01:42.170Z,15.45
2018-11-11T08:04:09.816Z,13.13
2018-11-11T08:06:37.386Z,12.45
2018-11-11T08:09:06.157Z,15.03
2018-11-11T08:11:39.080Z,13.05
2018-11-11T08:14:07.279Z,13.40
2018-11-11T08:16:34.607Z,15.70
2018-11-11T08:19:01.941Z,13.05
2018-11-11T08:21:30.150Z,12.78
2018-11-11T08:23:57.501Z,14.28
2018-11-11T08:26:25.103Z,18.98
2018-11-11T08:28:52.667Z,12.47
2018-11-11T08:31:20.014Z,13.88
2018-11-11T08:33:47.362Z,11.30
2018-11-11T08:36:14.765Z,12.60
2018-11-11T08:38:42.309Z,11.38
2018-11-11T08:41:09.651Z,14.50
2018-11-11T08:43:36.987Z,14.60
2018-11-11T08:46:04.556Z,11.85
2018-11-11T08:48:32.123Z,11.85
2018-11-11T08:50:59.717Z,11.28
2018-11-11T08:53:27.535Z,10.82
2018-11-11T08:55:54.932Z,11.63
2018-11-11T08:58:22.526Z,10.43
2018-11-11T09:00:50.999Z,10.55
2018-11-11T09:03:18.441Z,11.68
2018-11-11T09:05:45.797Z,11.57
2018-11-11T09:08:13.097Z,10.10
2018-11-11T09:10:40.481Z,10.38
2018-11-11T09:13:07.923Z,11.63
2018-11-11T09:15:35.515Z,9.83
2018-11-11T09:18:02.865Z,10.00
2018-11-11T09:20:30.268Z,13.20
2018-11-11T09:22:57.823Z,11.53
2018-11-11T09:25:25.211Z,9.18
2018-11-11T09:27:52.890Z,10.40
2018-11-11T09:30:20.294Z,8.73
2018-11-11T09:32:47.585Z,11.25
2018-11-11T09:35:15.172Z,11.97
2018-11-11T09:37:42.541Z,9.10
2018-11-11T09:40:11.120Z,8.78
2018-11-11T09:42:38.488Z,8.45
2018-11-11T09:45:07.504Z,8.90
2018-11-11T09:47:34.859Z,9.00
2018-11-11T09:50:02.649Z,8.03
2018-11-11T09:52:30.059Z,8.95
2018-11-11T09:54:58.148Z,9.83
2018-11-11T09:57:26.242Z,8.48
2018-11-11T09:59:53.727Z,8.13
2018-11-11T10:02:21.123Z,7.40
2018-11-11T10:04:53.398Z,7.80
2018-11-11T10:07:30.416Z,8.10
2018-11-11T10:10:07.091Z,8.25
2018-11-11T10:12:44.776Z,7.20
2018-11-11T10:15:16.600Z,7.80
2018-11-11T10:19:53.015Z,8.63
2018-11-11T10:22:25.389Z,8.13
2018-11-11T10:24:57.205Z,9.83
2018-11-11T10:27:29.990Z,7.40
2018-11-11T10:30:01.485Z,7.33
2018-11-11T10:33:37.328Z,7.90
2018-11-11T10:36:11.087Z,7.30
2018-11-11T10:38:43.803Z,7.03
2018-11-11T10:41:22.571Z,6.70
2018-11-11T10:43:55.883Z,7.43
2018-11-11T10:46:26.427Z,6.60
2018-11-11T10:49:00.570Z,7.20
2018-11-11T10:51:28.249Z,5.90
2018-11-11T10:53:55.737Z,5.17
2018-11-11T10:56:23.080Z,5.87
2018-11-11T10:58:50.429Z,6.03
2018-11-11T11:01:23.121Z,6.13
2018-11-11T11:03:50.843Z,5.73
2018-11-11T11:06:22.541Z,5.60
2018-11-11T11:08:55.267Z,5.83
2018-11-11T11:11:22.646Z,5.93
2018-11-11T11:13:50.120Z,6.60
2018-11-11T11:16:17.472Z,6.10
2018-11-11T11:18:44.777Z,6.10
2018-11-11T11:21:12.145Z,6.30
2018-11-11T11:23:39.473Z,6.53
2018-11-11T11:26:07.029Z,6.30
2018-11-11T11:28:34.431Z,5.40
2018-11-11T11:31:01.765Z,5.40
2018-11-11T11:33:29.356Z,4.70
2018-11-11T11:35:56.696Z,4.47
2018-11-11T11:38:24.232Z,4.87
2018-11-11T11:40:51.906Z,3.33
2018-11-11T11:43:19.490Z,3.90
2018-11-11T11:45:47.117Z,4.00
2018-11-11T11:48:15.363Z,3.42
2018-11-11T11:50:43.019Z,3.60
2018-11-11T11:53:10.599Z,11.43
2018-11-11T11:55:38.190Z,4.50
2018-11-11T11:58:11.119Z,4.70
2018-11-11T12:00:38.460Z,4.08
2018-11-11T12:03:05.781Z,4.03
2018-11-11T12:05:33.346Z,3.60
2018-11-11T12:08:00.730Z,3.15
2018-11-11T12:10:28.162Z,3.80
2018-11-11T12:12:55.468Z,3.10
2018-11-11T12:15:23.227Z,5.37
2018-11-11T12:17:50.587Z,3.60
2018-11-11T12:20:18.578Z,3.92
2018-11-11T12:22:46.347Z,3.92
2018-11-11T12:25:13.693Z,3.87
2018-11-11T12:27:41.248Z,4.30
2018-11-11T12:30:11.519Z,3.52
2018-11-11T12:32:38.905Z,4.15
2018-11-11T12:35:07.465Z,4.92
2018-11-11T12:37:34.942Z,3.98
2018-11-11T12:40:02.484Z,4.17
2018-11-11T12:42:29.715Z,2.95
2018-11-11T12:44:57.263Z,3.87
2018-11-11T12:47:24.828Z,3.72
2018-11-11T12:49:52.389Z,3.85
2018-11-11T12:52:20.469Z,3.02
2018-11-11T12:54:47.806Z,2.40
2018-11-11T12:57:15.154Z,3.22
2018-11-11T12:59:42.734Z,3.87
2018-11-11T13:02:10.223Z,3.10
2018-11-11T13:04:37.869Z,4.50
2018-11-11T13:07:05.821Z,3.27
2018-11-11T13:09:33.580Z,2.47
2018-11-11T13:12:02.676Z,3.02
2018-11-11T13:14:31.105Z,3.62
2018-11-11T13:16:58.724Z,3.20
2018-11-11T13:19:26.332Z,2.60
2018-11-11T13:21:53.802Z,7.78
2018-11-11T13:24:21.161Z,3.85
2018-11-11T13:26:48.549Z,5.05
2018-11-11T13:29:15.995Z,3.52
2018-11-11T13:31:43.482Z,4.72
2018-11-11T13:34:11.165Z,8.15
2018-11-11T13:36:38.924Z,3.70
2018-11-11T13:39:08.347Z,3.65
2018-11-11T13:41:35.864Z,4.03
2018-11-11T13:44:03.569Z,3.75
2018-11-11T13:46:31.215Z,2.85
2018-11-11T13:48:59.316Z,4.53
2018-11-11T13:51:26.924Z,4.10
2018-11-11T13:53:54.291Z,5.97
2018-11-11T13:56:21.877Z,2.50
2018-11-11T13:58:49.282Z,3.00
2018-11-11T14:01:20.167Z,2.67
2018-11-11T14:03:47.558Z,3.27
2018-11-11T14:06:15.040Z,3.40
2018-11-11T14:08:42.440Z,5.55
2018-11-11T14:11:10.415Z,3.47
2018-11-11T14:13:38.869Z,3.60
2018-11-11T14:16:06.275Z,3.22
2018-11-11T14:18:33.801Z,4.85
2018-11-11T14:21:01.043Z,3.75
2018-11-11T14:23:30.319Z,3.33
2018-11-11T14:25:57.954Z,3.95
2018-11-11T14:28:25.316Z,3.02
2018-11-11T14:30:55.848Z,4.85
2018-11-11T14:33:26.441Z,3.75
2018-11-11T14:35:57.460Z,4.72
2018-11-11T14:38:30.800Z,2.95
2018-11-11T14:41:00.836Z,5.30
2018-11-11T14:43:31.181Z,3.90
2018-11-11T14:46:00.810Z,5.85
2018-11-11T14:48:31.215Z,6.15
2018-11-11T14:50:59.944Z,4.30
2018-11-11T14:53:28.972Z,5.28
2018-11-11T14:55:57.849Z,4.97
2018-11-11T14:58:27.793Z,5.05
2018-11-11T15:00:55.226Z,5.28
2018-11-11T15:03:28.526Z,4.65
2018-11-11T15:05:56.069Z,5.87
2018-11-11T15:08:24.169Z,4.85
2018-11-11T15:10:51.601Z,4.42
2018-11-11T15:13:19.018Z,3.98
2018-11-11T15:15:46.397Z,7.42
2018-11-11T15:18:14.173Z,6.03
2018-11-11T15:20:41.627Z,5.50
2018-11-11T15:23:10.825Z,4.67
2018-11-11T15:25:38.262Z,5.95
2018-11-11T15:28:05.999Z,3.58
2018-11-11T15:30:34.927Z,4.87
2018-11-11T15:33:03.352Z,7.58
2018-11-11T15:35:30.978Z,4.62
2018-11-11T15:37:58.639Z,6.53
2018-11-11T15:40:31.767Z,7.47
2018-11-11T15:42:59.408Z,4.35
2018-11-11T15:45:28.042Z,5.05
2018-11-11T15:47:55.610Z,5.03
2018-11-11T15:50:25.854Z,5.25
2018-11-11T15:52:57.794Z,6.83
2018-11-11T15:55:26.227Z,6.50
2018-11-11T15:57:53.685Z,6.05
2018-11-11T16:00:22.666Z,6.10
2018-11-11T16:02:50.019Z,4.35
2018-11-11T16:05:18.111Z,6.12
2018-11-11T16:07:46.217Z,4.47
2018-11-11T16:10:14.966Z,6.97
2018-11-11T16:12:42.830Z,4.58
2018-11-11T16:15:11.582Z,5.15
2018-11-11T16:17:38.986Z,5.35
2018-11-11T16:20:09.003Z,4.40
2018-11-11T16:22:36.486Z,7.97
2018-11-11T16:25:04.067Z,9.88
2018-11-11T16:27:31.730Z,5.83
2018-11-11T16:29:59.413Z,5.87
2018-11-11T16:32:26.756Z,5.60
2018-11-11T16:34:54.118Z,5.08
2018-11-11T16:37:21.664Z,5.72
2018-11-11T16:39:49.500Z,7.35
2018-11-11T16:42:16.910Z,5.87
2018-11-11T16:44:44.328Z,7.00
2018-11-11T16:47:12.952Z,4.08
2018-11-11T16:49:40.386Z,3.85
2018-11-11T16:52:07.773Z,5.60
2018-11-11T16:54:35.123Z,6.17
2018-11-11T16:57:02.680Z,7.42
2018-11-11T16:59:30.092Z,8.38
2018-11-11T17:01:57.706Z,4.37
2018-11-11T17:04:25.530Z,5.90
2018-11-11T17:06:53.279Z,7.30
2018-11-11T17:09:20.924Z,5.75
2018-11-11T17:11:48.814Z,4.50
2018-11-11T17:14:17.169Z,4.97
2018-11-11T17:16:44.864Z,4.85
2018-11-11T17:19:12.746Z,4.97
2018-11-11T17:21:40.503Z,4.80
2018-11-11T17:24:07.779Z,3.90
2018-11-11T17:26:35.169Z,4.83
2018-11-11T17:29:03.182Z,3.80
2018-11-11T17:31:30.631Z,6.72
2018-11-11T17:33:57.995Z,4.60
2018-11-11T17:36:25.425Z,5.65
2018-11-11T17:38:53.107Z,6.95
2018-11-11T17:41:20.578Z,6.85
2018-11-11T17:43:48.192Z,5.78
2018-11-11T17:46:16.014Z,4.78
2018-11-11T17:48:43.516Z,4.62
2018-11-11T17:51:11.112Z,6.08
2018-11-11T17:53:38.482Z,6.00
2018-11-11T17:56:06.009Z,4.05
2018-11-11T17:58:33.343Z,6.05
2018-11-11T18:01:00.746Z,4.87
2018-11-11T18:03:28.204Z,6.05
2018-11-11T18:05:55.965Z,4.50
2018-11-11T18:08:23.737Z,5.83
2018-11-11T18:10:51.388Z,6.17
2018-11-11T18:13:19.256Z,5.37
2018-11-11T18:15:46.889Z,5.08
2018-11-11T18:18:14.454Z,8.23
2018-11-11T18:20:42.500Z,4.62
2018-11-11T18:23:10.132Z,6.00
2018-11-11T18:25:37.513Z,3.83
2018-11-11T18:28:05.089Z,4.17
2018-11-11T18:30:33.838Z,5.03
2018-11-11T18:33:01.202Z,4.47
2018-11-11T18:35:28.786Z,6.33
2018-11-11T18:37:56.270Z,7.60
2018-11-11T18:40:25.903Z,6.08
2018-11-11T18:42:55.550Z,8.35
2018-11-11T18:45:25.880Z,6.47
2018-11-11T18:47:54.255Z,4.40
2018-11-11T18:50:26.224Z,4.45
2018-11-11T18:52:54.553Z,3.90
2018-11-11T18:55:24.458Z,5.90
2018-11-11T18:57:52.291Z,5.10
2018-11-11T19:00:24.041Z,6.00
2018-11-11T19:02:53.781Z,4.70
2018-11-11T19:05:23.393Z,3.80
2018-11-11T19:07:52.859Z,5.85
2018-11-11T19:10:25.115Z,4.65
2018-11-11T19:12:54.379Z,6.65
2018-11-11T19:15:22.196Z,6.40
2018-11-11T19:17:50.736Z,4.03
2018-11-11T19:20:19.937Z,5.72
2018-11-11T19:22:48.955Z,4.97
2018-11-11T19:25:19.181Z,5.00
2018-11-11T19:27:48.253Z,4.40
2018-11-11T19:30:17.823Z,5.28
2018-11-11T19:32:46.697Z,3.62
2018-11-11T19:35:15.065Z,7.50
2018-11-11T19:37:44.403Z,3.92
2018-11-11T19:40:14.292Z,4.83
2018-11-11T19:42:42.335Z,6.67
2018-11-11T19:45:11.496Z,4.95
2018-11-11T19:47:39.951Z,3.33
2018-11-11T19:50:10.116Z,4.30
2018-11-11T19:52:40.027Z,4.60
2018-11-11T19:55:09.244Z,7.50
2018-11-11T19:57:38.957Z,3.98
2018-11-11T20:00:09.453Z,3.37
2018-11-11T20:02:39.728Z,4.03
2018-11-11T20:05:09.815Z,7.15
2018-11-11T20:07:37.369Z,4.50
2018-11-11T20:10:06.989Z,4.25
2018-11-11T20:12:39.076Z,6.53
2018-11-11T20:15:11.676Z,4.47
2018-11-11T20:17:41.252Z,6.80
2018-11-11T20:20:10.806Z,4.78
2018-11-11T20:22:40.092Z,4.92
2018-11-11T20:25:09.354Z,7.20
2018-11-11T20:27:39.310Z,6.83
2018-11-11T20:30:09.962Z,6.00
2018-11-11T20:32:41.465Z,4.05
2018-11-11T20:35:11.900Z,5.47
2018-11-11T20:37:42.078Z,6.42
2018-11-11T20:40:11.295Z,3.72
2018-11-11T20:42:39.395Z,4.78
2018-11-11T20:45:07.873Z,5.03
2018-11-11T20:47:38.367Z,4.00
2018-11-11T20:50:08.880Z,5.42
2018-11-11T20:52:36.839Z,4.92
2018-11-11T20:55:07.494Z,3.80
2018-11-11T20:57:37.478Z,3.30
2018-11-11T21:00:07.784Z,5.15
2018-11-11T21:02:35.788Z,4.78
2018-11-11T21:05:05.185Z,5.47
2018-11-11T21:07:33.432Z,6.05
2018-11-11T21:10:01.183Z,5.62
2018-11-11T21:12:28.551Z,5.37
2018-11-11T21:14:57.988Z,5.10
2018-11-11T21:17:26.047Z,4.72
2018-11-11T21:19:54.348Z,5.30
2018-11-11T21:22:22.707Z,7.72
2018-11-11T21:24:50.954Z,4.12
2018-11-11T21:27:18.990Z,4.20
2018-11-11T21:29:46.821Z,5.12
2018-11-11T21:32:14.924Z,5.08
2018-11-11T21:34:42.246Z,3.98
2018-11-11T21:37:13.038Z,4.95
2018-11-11T21:39:42.119Z,4.78
2018-11-11T21:42:09.513Z,3.90
2018-11-11T21:44:37.142Z,7.28
2018-11-11T21:47:04.507Z,7.35
2018-11-11T21:49:32.309Z,4.87
2018-11-11T21:52:00.361Z,6.15
2018-11-11T21:54:27.962Z,5.10
2018-11-11T21:56:55.321Z,5.10
2018-11-11T21:59:22.682Z,5.17
2018-11-11T22:01:50.294Z,4.78
2018-11-11T22:04:17.623Z,4.28
2018-11-11T22:06:45.594Z,2.80
2018-11-11T22:09:13.094Z,2.90
2018-11-11T22:11:40.884Z,3.17
2018-11-11T22:14:09.133Z,3.25
2018-11-11T22:16:36.484Z,2.80
2018-11-11T22:19:03.840Z,8.03
2018-11-11T22:21:31.872Z,2.55
2018-11-11T22:23:59.453Z,2.50
2018-11-11T22:26:27.103Z,4.58
2018-11-11T22:28:54.754Z,4.05
2018-11-11T22:31:22.577Z,6.47
2018-11-11T22:33:50.418Z,4.08
2018-11-11T22:36:17.955Z,4.75
2018-11-11T22:38:45.515Z,4.50
2018-11-11T22:41:12.976Z,2.92
2018-11-11T22:43:40.310Z,3.58
2018-11-11T22:46:07.658Z,2.70
2018-11-11T22:48:34.968Z,3.25
2018-11-11T22:51:02.284Z,5.58
2018-11-11T22:53:30.314Z,2.75
2018-11-11T22:55:59.790Z,2.95
2018-11-11T22:58:27.319Z,3.55
2018-11-11T23:01:00.427Z,3.65
2018-11-11T23:03:27.794Z,2.45
2018-11-11T23:05:55.422Z,5.05
2018-11-11T23:08:22.991Z,3.85
2018-11-11T23:10:50.585Z,2.55
2018-11-11T23:13:18.246Z,2.42
2018-11-11T23:15:45.821Z,2.55
2018-11-11T23:18:13.131Z,2.52
2018-11-11T23:20:40.681Z,2.15
2018-11-11T23:23:08.029Z,2.90
2018-11-11T23:25:35.621Z,2.37
2018-11-11T23:28:03.293Z,2.90
2018-11-11T23:30:30.613Z,2.40
2018-11-11T23:32:57.955Z,2.20
2018-11-11T23:35:25.804Z,2.30
2018-11-11T23:37:53.171Z,3.20
2018-11-11T23:40:20.748Z,2.65
2018-11-11T23:42:49.216Z,5.28
2018-11-11T23:45:16.716Z,2.72
2018-11-11T23:47:44.290Z,2.22
2018-11-11T23:50:19.129Z,2.30
2018-11-11T23:52:48.379Z,2.40
2018-11-11T23:55:18.376Z,1.90
2018-11-11T23:57:45.829Z,2.47
